createdAt,value
2023-04-27T00:01:46.733Z,22.40
2023-04-27T00:04:15.107Z,23.00
2023-04-27T00:06:42.892Z,23.50
2023-04-27T00:09:10.007Z,23.90
2023-04-27T00:11:37.164Z,23.60
2023-04-27T00:14:04.423Z,23.20
2023-04-27T00:16:31.739Z,23.30
2023-04-27T00:18:58.919Z,23.40
2023-04-27T00:21:27.178Z,23.10
2023-04-27T00:23:55.026Z,22.90
2023-04-27T00:26:22.713Z,22.70
2023-04-27T00:28:49.963Z,22.40
2023-04-27T00:31:17.209Z,21.90
2023-04-27T00:33:44.495Z,21.70
2023-04-27T00:36:11.592Z,21.10
2023-04-27T00:38:38.764Z,21.00
2023-04-27T00:41:07.388Z,20.70
2023-04-27T00:43:45.865Z,20.80
2023-04-27T00:46:14.670Z,20.90
2023-04-27T00:48:42.335Z,20.90
2023-04-27T00:51:09.633Z,20.80
2023-04-27T00:53:37.537Z,21.10
2023-04-27T00:56:07.983Z,21.70
2023-04-27T00:58:35.501Z,21.50
2023-04-27T01:01:04.135Z,21.60
2023-04-27T01:03:31.560Z,21.50
2023-04-27T01:06:01.907Z,21.80
2023-04-27T01:08:31.929Z,22.10
2023-04-27T01:11:01.896Z,22.10
2023-04-27T01:13:29.028Z,23.00
2023-04-27T01:15:56.053Z,22.90
2023-04-27T01:18:23.748Z,22.90
2023-04-27T01:20:50.891Z,23.20
2023-04-27T01:23:17.906Z,23.00
2023-04-27T01:25:45.196Z,22.50
2023-04-27T01:28:12.867Z,22.00
2023-04-27T01:30:40.400Z,22.50
2023-04-27T01:33:07.518Z,22.40
2023-04-27T01:35:34.659Z,22.30
2023-04-27T01:38:01.846Z,22.00
2023-04-27T01:40:29.457Z,22.00
2023-04-27T01:42:56.641Z,22.50
2023-04-27T01:45:24.472Z,22.90
2023-04-27T01:47:52.896Z,22.60
2023-04-27T01:50:20.767Z,22.60
2023-04-27T01:52:47.944Z,22.70
2023-04-27T01:55:15.010Z,22.80
2023-04-27T01:57:42.053Z,22.60
2023-04-27T02:00:09.740Z,22.70
2023-04-27T02:02:36.899Z,23.00
2023-04-27T02:05:04.544Z,23.50
2023-04-27T02:07:31.840Z,22.90
2023-04-27T02:09:58.839Z,22.30
2023-04-27T02:12:25.984Z,21.80
2023-04-27T02:14:53.055Z,21.40
2023-04-27T02:17:20.050Z,21.10
2023-04-27T02:19:47.067Z,21.20
2023-04-27T02:22:14.121Z,21.40
2023-04-27T02:24:41.235Z,22.00
2023-04-27T02:27:08.261Z,22.10
2023-04-27T02:29:39.032Z,22.60
2023-04-27T02:32:07.688Z,22.50
2023-04-27T02:34:34.740Z,22.10
2023-04-27T02:37:01.797Z,21.60
2023-04-27T02:39:28.888Z,21.60
2023-04-27T02:41:55.965Z,21.50
2023-04-27T02:44:22.989Z,21.70
2023-04-27T02:46:50.909Z,22.10
2023-04-27T02:49:18.188Z,22.20
2023-04-27T02:51:45.289Z,22.40
2023-04-27T02:54:13.152Z,21.90
2023-04-27T02:56:40.248Z,22.30
2023-04-27T02:59:07.354Z,22.20
2023-04-27T03:01:34.414Z,22.40
2023-04-27T03:04:02.357Z,22.60
2023-04-27T03:06:30.136Z,22.50
2023-04-27T03:08:58.510Z,22.20
2023-04-27T03:11:25.566Z,21.90
2023-04-27T03:13:52.971Z,22.00
2023-04-27T03:16:20.118Z,22.50
2023-04-27T03:18:47.113Z,22.20
2023-04-27T03:21:14.495Z,22.90
2023-04-27T03:23:41.603Z,22.90
2023-04-27T03:26:09.624Z,22.70
2023-04-27T03:28:37.123Z,22.60
2023-04-27T03:31:12.614Z,22.70
2023-04-27T03:33:40.660Z,22.70
2023-04-27T03:36:10.211Z,22.50
2023-04-27T03:38:37.513Z,22.20
2023-04-27T03:41:04.829Z,22.00
2023-04-27T03:43:33.323Z,22.60
2023-04-27T03:46:00.495Z,22.90
2023-04-27T03:48:27.494Z,23.10
2023-04-27T03:50:54.429Z,23.90
2023-04-27T03:53:21.540Z,24.00
2023-04-27T03:55:49.848Z,24.00
2023-04-27T03:58:17.607Z,23.60
2023-04-27T04:00:44.931Z,23.50
2023-04-27T04:03:12.137Z,23.80
2023-04-27T04:05:39.293Z,23.60
2023-04-27T04:08:06.448Z,23.50
2023-04-27T04:10:33.464Z,23.20
2023-04-27T04:13:00.585Z,22.60
2023-04-27T04:15:27.692Z,22.00
2023-04-27T04:17:54.721Z,22.20
2023-04-27T04:20:22.430Z,22.10
2023-04-27T04:22:49.542Z,22.20
2023-04-27T04:25:16.656Z,22.20
2023-04-27T04:27:43.651Z,22.70
2023-04-27T04:30:11.641Z,23.10
2023-04-27T04:32:39.969Z,23.20
2023-04-27T04:35:07.525Z,23.30
2023-04-27T04:37:35.684Z,23.60
2023-04-27T04:40:10.760Z,23.50
2023-04-27T04:42:38.224Z,23.30
2023-04-27T04:45:06.061Z,22.90
2023-04-27T04:47:34.388Z,22.90
2023-04-27T04:50:01.788Z,23.00
2023-04-27T04:52:28.789Z,22.90
2023-04-27T04:54:57.098Z,23.00
2023-04-27T04:57:24.190Z,22.80
2023-04-27T04:59:51.228Z,23.40
2023-04-27T05:02:18.306Z,23.50
2023-04-27T05:04:45.977Z,23.90
2023-04-27T05:07:15.013Z,24.10
2023-04-27T05:09:42.685Z,24.20
2023-04-27T05:12:09.988Z,23.40
2023-04-27T05:14:36.992Z,23.70
2023-04-27T05:17:03.991Z,23.60
2023-04-27T05:19:31.490Z,23.70
2023-04-27T05:22:01.543Z,23.80
2023-04-27T05:24:28.533Z,23.80
2023-04-27T05:26:55.652Z,23.60
2023-04-27T05:29:23.091Z,23.70
2023-04-27T05:31:50.609Z,23.60
2023-04-27T05:34:17.724Z,24.40
2023-04-27T05:36:44.841Z,24.20
2023-04-27T05:39:12.085Z,24.40
2023-04-27T05:41:39.470Z,23.90
2023-04-27T05:44:06.859Z,23.10
2023-04-27T05:46:35.395Z,23.50
2023-04-27T05:49:04.855Z,23.30
2023-04-27T05:51:33.557Z,23.10
2023-04-27T05:54:02.122Z,22.60
2023-04-27T05:56:29.672Z,22.40
2023-04-27T05:58:57.021Z,22.70
2023-04-27T06:01:24.766Z,22.40
2023-04-27T06:03:52.078Z,21.80
2023-04-27T06:06:19.120Z,21.30
2023-04-27T06:08:46.681Z,21.70
2023-04-27T06:11:13.705Z,21.80
2023-04-27T06:13:40.711Z,22.60
2023-04-27T06:16:08.566Z,23.20
2023-04-27T06:18:35.957Z,23.40
2023-04-27T06:21:03.088Z,23.20
2023-04-27T06:23:30.369Z,22.70
2023-04-27T06:25:58.930Z,22.30
2023-04-27T06:28:26.376Z,21.50
2023-04-27T06:30:55.040Z,21.40
2023-04-27T06:33:22.159Z,21.80
2023-04-27T06:35:52.015Z,22.00
2023-04-27T06:38:19.295Z,21.30
2023-04-27T06:40:51.570Z,21.40
2023-04-27T06:43:18.889Z,21.50
2023-04-27T06:45:46.247Z,21.10
2023-04-27T06:48:13.490Z,20.70
2023-04-27T06:50:40.799Z,20.40
2023-04-27T06:53:08.413Z,20.10
2023-04-27T06:55:37.157Z,19.90
2023-04-27T06:58:04.641Z,20.00
2023-04-27T07:00:32.154Z,19.90
2023-04-27T07:03:00.902Z,20.00
2023-04-27T07:05:28.140Z,19.50
2023-04-27T07:07:55.503Z,18.80
2023-04-27T07:10:23.079Z,18.40
2023-04-27T07:12:52.413Z,18.40
2023-04-27T07:15:19.551Z,18.70
2023-04-27T07:17:46.757Z,18.60
2023-04-27T07:20:14.635Z,18.60
2023-04-27T07:22:41.851Z,17.70
2023-04-27T07:25:09.341Z,17.50
2023-04-27T07:27:37.466Z,17.50
2023-04-27T07:30:09.487Z,17.30
2023-04-27T07:32:39.292Z,17.20
2023-04-27T07:35:06.856Z,17.00
2023-04-27T07:37:34.155Z,17.80
2023-04-27T07:40:02.475Z,17.30
2023-04-27T07:42:29.494Z,16.80
2023-04-27T07:44:57.912Z,17.10
2023-04-27T07:47:24.976Z,17.00
2023-04-27T07:49:55.390Z,16.90
2023-04-27T07:52:22.702Z,17.30
2023-04-27T07:54:50.017Z,18.10
2023-04-27T07:57:17.538Z,17.80
2023-04-27T07:59:44.873Z,17.20
2023-04-27T08:02:19.717Z,16.90
2023-04-27T08:04:48.961Z,16.20
2023-04-27T08:07:18.036Z,16.40
2023-04-27T08:09:47.065Z,17.00
2023-04-27T08:12:14.252Z,17.80
2023-04-27T08:14:41.879Z,17.00
2023-04-27T08:17:10.319Z,16.90
2023-04-27T08:19:37.826Z,16.50
2023-04-27T08:22:04.850Z,16.90
2023-04-27T08:24:33.465Z,16.50
2023-04-27T08:27:01.200Z,16.50
2023-04-27T08:29:29.267Z,16.30
2023-04-27T08:32:00.324Z,16.30
2023-04-27T08:34:29.116Z,16.50
2023-04-27T08:36:57.186Z,16.40
2023-04-27T08:39:26.251Z,16.10
2023-04-27T08:41:55.648Z,16.00
2023-04-27T08:44:22.954Z,16.10
2023-04-27T08:46:51.553Z,16.30
2023-04-27T08:49:18.953Z,16.30
2023-04-27T08:51:46.270Z,16.70
2023-04-27T08:54:16.470Z,16.10
2023-04-27T08:56:44.750Z,15.70
2023-04-27T08:59:16.736Z,15.90
2023-04-27T09:01:46.596Z,16.00
2023-04-27T09:04:14.184Z,15.30
2023-04-27T09:06:41.486Z,14.80
2023-04-27T09:09:09.337Z,14.80
2023-04-27T09:11:40.116Z,14.80
2023-04-27T09:14:22.284Z,14.80
2023-04-27T09:17:00.274Z,15.70
2023-04-27T09:19:30.204Z,16.20
2023-04-27T09:22:11.371Z,16.00
2023-04-27T09:24:38.694Z,16.10
2023-04-27T09:27:07.312Z,16.10
2023-04-27T09:29:36.954Z,16.20
2023-04-27T09:32:20.221Z,15.60
2023-04-27T09:34:47.755Z,15.80
2023-04-27T09:37:15.369Z,16.40
2023-04-27T09:39:42.873Z,15.80
2023-04-27T09:42:13.883Z,16.00
2023-04-27T09:44:41.814Z,16.20
2023-04-27T09:47:12.909Z,16.00
2023-04-27T09:49:40.081Z,16.00
2023-04-27T09:52:07.158Z,16.40
2023-04-27T09:54:36.334Z,15.30
2023-04-27T09:57:32.774Z,15.80
2023-04-27T10:00:13.300Z,14.50
2023-04-27T10:03:01.601Z,14.80
2023-04-27T10:05:34.423Z,15.30
2023-04-27T10:08:03.327Z,14.80
2023-04-27T10:10:42.132Z,14.60
2023-04-27T10:13:09.305Z,14.00
2023-04-27T10:15:40.459Z,14.40
2023-04-27T10:18:09.389Z,14.70
2023-04-27T10:20:38.487Z,14.10
2023-04-27T10:23:05.687Z,14.20
2023-04-27T10:25:40.862Z,13.90
2023-04-27T10:28:08.422Z,13.40
2023-04-27T10:30:38.770Z,13.90
2023-04-27T10:33:10.643Z,14.50
2023-04-27T10:35:43.075Z,14.30
2023-04-27T10:38:22.846Z,14.40
2023-04-27T10:41:05.687Z,14.80
2023-04-27T10:43:37.220Z,15.30
2023-04-27T10:46:13.059Z,16.30
2023-04-27T10:48:41.282Z,16.90
2023-04-27T10:51:08.558Z,17.70
2023-04-27T10:53:39.194Z,17.90
2023-04-27T10:56:07.237Z,17.90
2023-04-27T10:58:48.228Z,17.60
2023-04-27T11:01:27.192Z,18.20
2023-04-27T11:03:59.106Z,18.30
2023-04-27T11:06:28.622Z,18.20
2023-04-27T11:08:55.797Z,17.80
2023-04-27T11:11:23.978Z,17.10
2023-04-27T11:13:53.328Z,17.10
2023-04-27T11:16:20.679Z,16.90
2023-04-27T11:18:48.094Z,16.40
2023-04-27T11:21:24.791Z,17.00
2023-04-27T11:23:51.923Z,17.10
2023-04-27T11:26:27.007Z,17.50
2023-04-27T11:29:09.424Z,16.50
2023-04-27T11:31:49.238Z,16.60
2023-04-27T11:34:26.393Z,16.70
2023-04-27T11:37:14.363Z,16.40
2023-04-27T11:39:46.615Z,16.10
2023-04-27T11:42:25.042Z,16.60
2023-04-27T11:45:00.264Z,17.00
2023-04-27T11:47:30.745Z,17.50
2023-04-27T11:50:00.418Z,18.60
2023-04-27T11:52:34.998Z,18.80
2023-04-27T11:55:04.258Z,18.90
2023-04-27T11:57:33.909Z,19.40
2023-04-27T12:00:03.888Z,20.10
2023-04-27T12:02:34.268Z,19.50
2023-04-27T12:05:01.860Z,19.00
2023-04-27T12:07:29.448Z,17.90
2023-04-27T12:09:57.977Z,17.20
2023-04-27T12:12:27.827Z,17.30
2023-04-27T12:14:55.051Z,17.00
2023-04-27T12:17:22.120Z,16.70
2023-04-27T12:19:49.251Z,16.90
2023-04-27T12:22:16.632Z,16.50
2023-04-27T12:24:43.992Z,15.70
2023-04-27T12:27:11.191Z,16.00
2023-04-27T12:29:38.453Z,16.20
2023-04-27T12:32:06.187Z,16.30
2023-04-27T12:34:34.714Z,16.70
2023-04-27T12:37:01.821Z,16.30
2023-04-27T12:39:30.236Z,15.80
2023-04-27T12:41:58.543Z,16.00
2023-04-27T12:44:25.912Z,16.00
2023-04-27T12:46:53.290Z,15.80
2023-04-27T12:49:20.644Z,16.00
2023-04-27T12:51:51.781Z,15.80
2023-04-27T12:54:19.093Z,16.00
2023-04-27T12:56:48.613Z,15.90
2023-04-27T12:59:17.161Z,16.30
2023-04-27T13:01:45.945Z,16.70
2023-04-27T13:04:20.786Z,17.00
2023-04-27T13:06:49.033Z,15.60
2023-04-27T13:09:16.966Z,15.50
2023-04-27T13:11:44.418Z,14.50
2023-04-27T13:14:13.285Z,15.20
2023-04-27T13:16:41.662Z,15.40
2023-04-27T13:19:09.035Z,15.80
2023-04-27T13:21:36.314Z,15.90
2023-04-27T13:24:03.446Z,15.50
2023-04-27T13:26:30.848Z,14.70
2023-04-27T13:28:58.379Z,14.90
2023-04-27T13:31:26.039Z,15.00
2023-04-27T13:33:54.113Z,14.80
2023-04-27T13:36:21.222Z,15.30
2023-04-27T13:38:48.544Z,15.70
2023-04-27T13:41:17.004Z,16.00
2023-04-27T13:43:44.033Z,16.10
2023-04-27T13:46:11.249Z,16.10
2023-04-27T13:48:38.362Z,16.30
2023-04-27T13:51:05.884Z,16.60
2023-04-27T13:53:33.067Z,16.70
2023-04-27T13:56:00.707Z,17.70
2023-04-27T13:58:29.268Z,17.20
2023-04-27T14:00:56.724Z,17.20
2023-04-27T14:03:24.058Z,17.50
2023-04-27T14:05:51.721Z,17.60
2023-04-27T14:08:19.545Z,17.30
2023-04-27T14:10:47.115Z,17.80
2023-04-27T14:13:14.811Z,18.20
2023-04-27T14:15:42.635Z,18.80
2023-04-27T14:18:10.121Z,18.80
2023-04-27T14:20:38.608Z,18.60
2023-04-27T14:23:07.222Z,19.00
2023-04-27T14:25:35.259Z,19.20
2023-04-27T14:28:04.755Z,19.10
2023-04-27T14:30:32.891Z,18.80
2023-04-27T14:33:01.059Z,18.60
2023-04-27T14:35:28.534Z,18.00
2023-04-27T14:37:57.318Z,17.70
2023-04-27T14:40:24.492Z,17.60
2023-04-27T14:42:53.660Z,17.50
2023-04-27T14:45:23.653Z,16.90
2023-04-27T14:47:51.501Z,17.50
2023-04-27T14:50:18.739Z,17.40
2023-04-27T14:52:45.817Z,17.40
2023-04-27T14:55:15.567Z,17.00
2023-04-27T14:57:43.032Z,16.90
2023-04-27T15:00:10.924Z,16.90
2023-04-27T15:02:38.466Z,16.80
2023-04-27T15:05:06.545Z,17.10
2023-04-27T15:07:33.881Z,16.90
2023-04-27T15:10:01.039Z,17.10
2023-04-27T15:12:28.192Z,16.90
2023-04-27T15:14:55.839Z,16.90
2023-04-27T15:17:26.374Z,16.30
2023-04-27T15:19:53.495Z,16.30
2023-04-27T15:22:21.016Z,16.30
2023-04-27T15:24:48.176Z,16.70
2023-04-27T15:27:18.480Z,16.70
2023-04-27T15:29:46.027Z,16.30
2023-04-27T15:32:13.277Z,16.50
2023-04-27T15:34:44.743Z,16.60
2023-04-27T15:37:12.306Z,16.40
2023-04-27T15:39:39.648Z,16.40
2023-04-27T15:42:07.083Z,16.80
2023-04-27T15:44:34.386Z,17.30
2023-04-27T15:47:02.745Z,17.10
2023-04-27T15:49:30.686Z,17.00
2023-04-27T15:51:58.136Z,16.70
2023-04-27T15:54:26.039Z,16.90
2023-04-27T15:56:53.288Z,16.80
2023-04-27T15:59:20.432Z,16.60
2023-04-27T16:01:49.014Z,17.10
2023-04-27T16:04:17.096Z,17.10
2023-04-27T16:06:44.397Z,17.40
2023-04-27T16:09:11.838Z,17.60
2023-04-27T16:11:39.199Z,18.10
2023-04-27T16:14:12.382Z,17.80
2023-04-27T16:16:39.603Z,17.70
2023-04-27T16:19:07.818Z,17.40
2023-04-27T16:21:35.741Z,17.60
2023-04-27T16:24:04.452Z,17.50
2023-04-27T16:26:31.752Z,17.40
2023-04-27T16:28:58.893Z,17.50
2023-04-27T16:31:26.446Z,17.60
2023-04-27T16:33:53.626Z,17.90
2023-04-27T16:36:20.785Z,17.70
2023-04-27T16:38:48.035Z,17.50
2023-04-27T16:41:15.213Z,17.40
2023-04-27T16:43:42.294Z,17.50
2023-04-27T16:46:13.367Z,17.40
2023-04-27T16:48:43.587Z,17.40
2023-04-27T16:51:10.895Z,17.10
2023-04-27T16:53:38.303Z,17.10
2023-04-27T16:56:05.940Z,16.80
2023-04-27T16:58:36.455Z,17.10
2023-04-27T17:01:04.968Z,17.10
2023-04-27T17:03:33.007Z,16.80
2023-04-27T17:06:00.198Z,16.60
2023-04-27T17:08:27.665Z,18.20
2023-04-27T17:10:54.957Z,18.20
2023-04-27T17:13:22.294Z,16.50
2023-04-27T17:15:51.817Z,16.60
2023-04-27T17:18:20.430Z,16.40
2023-04-27T17:20:48.910Z,16.10
2023-04-27T17:23:16.927Z,16.20
2023-04-27T17:25:44.262Z,16.10
2023-04-27T17:28:43.375Z,15.90
2023-04-27T17:31:11.015Z,15.80
2023-04-27T17:33:39.671Z,15.60
2023-04-27T17:36:10.480Z,15.60
2023-04-27T17:38:39.565Z,15.40
2023-04-27T17:41:07.106Z,15.20
2023-04-27T17:43:35.265Z,15.30
2023-04-27T17:46:06.445Z,15.50
2023-04-27T17:48:33.392Z,15.40
2023-04-27T17:51:00.538Z,15.50
2023-04-27T17:53:30.702Z,15.70
2023-04-27T17:55:57.713Z,15.90
2023-04-27T17:58:24.808Z,15.80
2023-04-27T18:00:51.941Z,15.80
2023-04-27T18:03:19.259Z,16.00
2023-04-27T18:05:46.461Z,16.00
2023-04-27T18:08:13.566Z,15.60
2023-04-27T18:10:40.667Z,15.80
2023-04-27T18:13:07.639Z,15.80
2023-04-27T18:15:37.827Z,15.80
2023-04-27T18:18:04.990Z,15.80
2023-04-27T18:20:32.095Z,15.80
2023-04-27T18:22:59.181Z,16.00
2023-04-27T18:25:26.272Z,16.10
2023-04-27T18:27:55.854Z,16.00
2023-04-27T18:30:23.281Z,16.00
2023-04-27T18:32:50.882Z,16.10
2023-04-27T18:35:17.897Z,16.10
2023-04-27T18:37:48.425Z,16.20
2023-04-27T18:40:19.890Z,16.30
2023-04-27T18:42:47.171Z,16.30
2023-04-27T18:45:14.330Z,16.20
2023-04-27T18:47:41.713Z,16.20
2023-04-27T18:50:09.243Z,16.20
2023-04-27T18:52:36.236Z,16.40
2023-04-27T18:55:03.989Z,16.40
2023-04-27T18:57:31.402Z,16.40
2023-04-27T19:00:05.944Z,16.50
2023-04-27T19:02:33.694Z,16.50
2023-04-27T19:07:34.716Z,16.40
2023-04-27T19:10:01.712Z,16.40
2023-04-27T19:12:28.837Z,16.60
2023-04-27T19:14:56.082Z,16.80
2023-04-27T19:17:23.230Z,16.80
2023-04-27T19:19:50.488Z,17.50
2023-04-27T19:22:17.627Z,17.10
2023-04-27T19:24:44.691Z,17.20
2023-04-27T19:27:11.938Z,17.30
2023-04-27T19:29:53.339Z,17.40
2023-04-27T19:32:21.455Z,17.20
2023-04-27T19:34:49.457Z,17.00
2023-04-27T19:37:16.847Z,17.30
2023-04-27T19:39:44.032Z,17.80
2023-04-27T19:42:11.253Z,17.40
2023-04-27T19:44:38.277Z,17.20
2023-04-27T19:47:05.474Z,17.10
2023-04-27T19:49:33.194Z,17.00
2023-04-27T19:52:00.719Z,17.10
2023-04-27T19:54:28.012Z,17.20
2023-04-27T19:56:55.794Z,17.30
2023-04-27T19:59:24.572Z,17.20
2023-04-27T20:01:52.154Z,17.30
2023-04-27T20:04:21.029Z,17.50
2023-04-27T20:06:48.884Z,17.40
2023-04-27T20:09:15.970Z,17.20
2023-04-27T20:11:42.969Z,17.20
2023-04-27T20:14:10.015Z,17.20
2023-04-27T20:16:37.187Z,17.30
2023-04-27T20:19:06.469Z,17.30
2023-04-27T20:21:33.785Z,17.40
2023-04-27T20:24:01.115Z,18.10
2023-04-27T20:26:28.136Z,17.70
2023-04-27T20:28:55.263Z,17.80
2023-04-27T20:31:22.610Z,17.80
2023-04-27T20:33:50.071Z,18.20
2023-04-27T20:36:18.307Z,17.50
2023-04-27T20:38:46.601Z,17.80
2023-04-27T20:41:13.721Z,18.10
2023-04-27T20:43:45.563Z,18.40
2023-04-27T20:46:15.254Z,18.70
2023-04-27T20:48:42.307Z,19.60
2023-04-27T20:51:09.616Z,18.90
2023-04-27T20:53:37.045Z,19.20
2023-04-27T20:56:05.214Z,19.30
2023-04-27T20:58:32.502Z,19.30
2023-04-27T21:01:01.917Z,19.30
2023-04-27T21:03:29.121Z,19.50
2023-04-27T21:05:56.464Z,19.10
2023-04-27T21:08:23.612Z,18.90
2023-04-27T21:10:50.741Z,18.80
2023-04-27T21:13:17.995Z,18.70
2023-04-27T21:15:45.213Z,18.70
2023-04-27T21:18:22.354Z,18.60
2023-04-27T21:20:56.728Z,18.60
2023-04-27T21:23:23.795Z,18.50
2023-04-27T21:25:50.951Z,18.60
2023-04-27T21:28:18.200Z,18.60
2023-04-27T21:30:45.561Z,18.70
2023-04-27T21:33:12.749Z,18.80
2023-04-27T21:35:39.883Z,18.70
2023-04-27T21:38:06.998Z,18.90
2023-04-27T21:40:34.009Z,18.80
2023-04-27T21:43:01.343Z,19.00
2023-04-27T21:45:32.390Z,19.20
2023-04-27T21:47:59.335Z,19.20
2023-04-27T21:50:26.575Z,19.20
2023-04-27T21:52:53.753Z,19.30
2023-04-27T21:55:20.863Z,19.40
2023-04-27T21:57:47.868Z,19.60
2023-04-27T22:00:15.531Z,19.70
2023-04-27T22:02:43.432Z,20.10
2023-04-27T22:05:10.738Z,20.40
2023-04-27T22:07:38.479Z,20.50
2023-04-27T22:10:06.023Z,20.00
2023-04-27T22:12:33.581Z,20.20
2023-04-27T22:15:01.103Z,20.30
2023-04-27T22:17:28.351Z,20.60
2023-04-27T22:19:55.488Z,20.60
2023-04-27T22:22:22.662Z,20.70
2023-04-27T22:24:49.731Z,20.40
2023-04-27T22:27:16.805Z,20.60
2023-04-27T22:29:43.880Z,21.10
2023-04-27T22:32:11.209Z,21.10
2023-04-27T22:34:38.421Z,20.40
2023-04-27T22:37:05.560Z,19.80
2023-04-27T22:39:32.664Z,19.50
2023-04-27T22:41:59.712Z,19.10
2023-04-27T22:44:26.836Z,18.90
2023-04-27T22:46:55.617Z,18.80
2023-04-27T22:49:23.035Z,18.40
2023-04-27T22:51:50.341Z,18.40
2023-04-27T22:54:17.776Z,18.30
2023-04-27T22:56:45.144Z,18.10
2023-04-27T22:59:12.475Z,18.20
2023-04-27T23:01:39.662Z,18.20
2023-04-27T23:04:07.375Z,18.10
2023-04-27T23:06:35.848Z,18.20
2023-04-27T23:09:03.367Z,18.20
2023-04-27T23:11:30.347Z,18.20
2023-04-27T23:13:57.600Z,18.40
2023-04-27T23:16:25.990Z,18.40
2023-04-27T23:18:53.185Z,18.50
2023-04-27T23:21:20.207Z,18.70
2023-04-27T23:23:47.309Z,18.90
2023-04-27T23:26:17.414Z,19.20
2023-04-27T23:28:44.723Z,19.30
2023-04-27T23:31:11.981Z,19.40
2023-04-27T23:33:39.172Z,19.80
2023-04-27T23:36:06.495Z,20.30
2023-04-27T23:38:33.748Z,20.00
2023-04-27T23:41:00.859Z,20.00
2023-04-27T23:43:28.098Z,19.70
2023-04-27T23:45:55.206Z,19.80
2023-04-27T23:48:24.569Z,19.90
2023-04-27T23:51:02.589Z,19.90
2023-04-27T23:53:30.290Z,19.60
2023-04-27T23:55:57.673Z,19.10
2023-04-27T23:58:26.285Z,19.00
